sensor_id;sensor_type;location;lat;lon;timestamp;P1;durP1;ratioP1;P2;durP2;ratioP2
32491;SDS011;20605;49.742;18.802;2023-02-17T00:00:19;59.50;;;34.60;;
32491;SDS011;20605;49.742;18.802;2023-02-17T00:02:44;61.50;;;34.20;;
32491;SDS011;20605;49.742;18.802;2023-02-17T00:05:10;59.10;;;33.70;;
32491;SDS011;20605;49.742;18.802;2023-02-17T00:07:36;56.90;;;32.80;;
32491;SDS011;20605;49.742;18.802;2023-02-17T00:10:02;57.50;;;33.50;;
32491;SDS011;20605;49.742;18.802;2023-02-17T00:12:28;59.50;;;34.90;;
32491;SDS011;20605;49.742;18.802;2023-02-17T00:14:54;56.20;;;31.80;;
32491;SDS011;20605;49.742;18.802;2023-02-17T00:17:19;58.20;;;33.70;;
32491;SDS011;20605;49.742;18.802;2023-02-17T00:19:45;53.50;;;31.40;;
32491;SDS011;20605;49.742;18.802;2023-02-17T00:22:11;56.80;;;32.30;;
32491;SDS011;20605;49.742;18.802;2023-02-17T00:24:37;51.60;;;30.60;;
32491;SDS011;20605;49.742;18.802;2023-02-17T00:27:05;50.10;;;30.50;;
32491;SDS011;20605;49.742;18.802;2023-02-17T00:29:31;58.10;;;34.20;;
32491;SDS011;20605;49.742;18.802;2023-02-17T00:31:58;59.40;;;33.70;;
32491;SDS011;20605;49.742;18.802;2023-02-17T00:34:24;50.00;;;28.90;;
32491;SDS011;20605;49.742;18.802;2023-02-17T00:36:52;53.50;;;31.30;;
32491;SDS011;20605;49.742;18.802;2023-02-17T00:39:18;53.30;;;30.30;;
32491;SDS011;20605;49.742;18.802;2023-02-17T00:41:47;57.00;;;32.60;;
32491;SDS011;20605;49.742;18.802;2023-02-17T00:44:17;53.30;;;31.80;;
32491;SDS011;20605;49.742;18.802;2023-02-17T00:46:46;57.50;;;33.00;;
32491;SDS011;20605;49.742;18.802;2023-02-17T00:49:30;53.10;;;31.50;;
32491;SDS011;20605;49.742;18.802;2023-02-17T00:51:57;59.80;;;33.40;;
32491;SDS011;20605;49.742;18.802;2023-02-17T00:54:25;64.60;;;36.30;;
32491;SDS011;20605;49.742;18.802;2023-02-17T00:56:52;61.80;;;33.70;;
32491;SDS011;20605;49.742;18.802;2023-02-17T00:59:18;60.50;;;33.40;;
32491;SDS011;20605;49.742;18.802;2023-02-17T01:01:44;56.00;;;33.00;;
32491;SDS011;20605;49.742;18.802;2023-02-17T01:04:09;54.80;;;31.80;;
32491;SDS011;20605;49.742;18.802;2023-02-17T01:06:36;58.10;;;32.60;;
32491;SDS011;20605;49.742;18.802;2023-02-17T01:09:06;57.20;;;32.60;;
32491;SDS011;20605;49.742;18.802;2023-02-17T01:11:34;56.30;;;32.20;;
32491;SDS011;20605;49.742;18.802;2023-02-17T01:14:01;57.60;;;33.00;;
32491;SDS011;20605;49.742;18.802;2023-02-17T01:16:31;52.80;;;31.20;;
32491;SDS011;20605;49.742;18.802;2023-02-17T01:19:03;57.10;;;32.90;;
32491;SDS011;20605;49.742;18.802;2023-02-17T01:21:32;54.60;;;32.60;;
32491;SDS011;20605;49.742;18.802;2023-02-17T01:23:59;58.30;;;32.50;;
32491;SDS011;20605;49.742;18.802;2023-02-17T01:26:27;54.10;;;33.10;;
32491;SDS011;20605;49.742;18.802;2023-02-17T01:28:55;54.50;;;29.70;;
32491;SDS011;20605;49.742;18.802;2023-02-17T01:31:21;53.20;;;31.40;;
32491;SDS011;20605;49.742;18.802;2023-02-17T01:33:48;54.70;;;31.60;;
32491;SDS011;20605;49.742;18.802;2023-02-17T01:36:15;52.60;;;31.00;;
32491;SDS011;20605;49.742;18.802;2023-02-17T01:38:43;57.00;;;30.00;;
32491;SDS011;20605;49.742;18.802;2023-02-17T01:41:11;55.20;;;31.30;;
32491;SDS011;20605;49.742;18.802;2023-02-17T01:43:38;54.10;;;30.30;;
32491;SDS011;20605;49.742;18.802;2023-02-17T01:46:04;55.90;;;31.70;;
32491;SDS011;20605;49.742;18.802;2023-02-17T01:48:47;53.00;;;30.40;;
32491;SDS011;20605;49.742;18.802;2023-02-17T01:51:22;55.50;;;31.90;;
32491;SDS011;20605;49.742;18.802;2023-02-17T01:53:55;50.90;;;28.90;;
32491;SDS011;20605;49.742;18.802;2023-02-17T01:56:31;54.90;;;30.00;;
32491;SDS011;20605;49.742;18.802;2023-02-17T01:59:07;53.90;;;31.30;;
32491;SDS011;20605;49.742;18.802;2023-02-17T02:01:40;55.40;;;31.90;;
32491;SDS011;20605;49.742;18.802;2023-02-17T02:04:08;53.90;;;30.40;;
32491;SDS011;20605;49.742;18.802;2023-02-17T02:06:34;56.40;;;31.30;;
32491;SDS011;20605;49.742;18.802;2023-02-17T02:09:04;58.80;;;33.00;;
32491;SDS011;20605;49.742;18.802;2023-02-17T02:11:33;58.60;;;32.80;;
32491;SDS011;20605;49.742;18.802;2023-02-17T02:14:00;58.30;;;32.80;;
32491;SDS011;20605;49.742;18.802;2023-02-17T02:16:32;52.50;;;31.90;;
32491;SDS011;20605;49.742;18.802;2023-02-17T02:27:49;53.30;;;31.30;;
32491;SDS011;20605;49.742;18.802;2023-02-17T02:35:57;54.50;;;30.80;;
32491;SDS011;20605;49.742;18.802;2023-02-17T02:39:02;53.40;;;31.40;;
32491;SDS011;20605;49.742;18.802;2023-02-17T02:41:37;51.60;;;30.50;;
32491;SDS011;20605;49.742;18.802;2023-02-17T02:44:10;54.80;;;29.60;;
32491;SDS011;20605;49.742;18.802;2023-02-17T02:46:38;52.40;;;31.60;;
32491;SDS011;20605;49.742;18.802;2023-02-17T02:49:04;52.20;;;31.00;;
32491;SDS011;20605;49.742;18.802;2023-02-17T02:59:55;56.50;;;31.60;;
32491;SDS011;20605;49.742;18.802;2023-02-17T03:05:12;54.40;;;31.30;;
32491;SDS011;20605;49.742;18.802;2023-02-17T03:10:34;51.20;;;29.70;;
32491;SDS011;20605;49.742;18.802;2023-02-17T03:13:01;50.60;;;29.70;;
32491;SDS011;20605;49.742;18.802;2023-02-17T03:15:29;51.70;;;31.40;;
32491;SDS011;20605;49.742;18.802;2023-02-17T03:17:59;47.60;;;30.20;;
32491;SDS011;20605;49.742;18.802;2023-02-17T03:20:28;54.10;;;30.80;;
32491;SDS011;20605;49.742;18.802;2023-02-17T03:22:57;47.90;;;27.60;;
32491;SDS011;20605;49.742;18.802;2023-02-17T03:25:24;44.30;;;28.20;;
32491;SDS011;20605;49.742;18.802;2023-02-17T03:27:50;50.50;;;29.50;;
32491;SDS011;20605;49.742;18.802;2023-02-17T03:30:16;53.10;;;30.30;;
32491;SDS011;20605;49.742;18.802;2023-02-17T03:32:42;50.20;;;29.30;;
32491;SDS011;20605;49.742;18.802;2023-02-17T03:35:08;48.80;;;27.60;;
32491;SDS011;20605;49.742;18.802;2023-02-17T03:37:35;47.70;;;28.30;;
32491;SDS011;20605;49.742;18.802;2023-02-17T03:40:00;49.30;;;29.60;;
32491;SDS011;20605;49.742;18.802;2023-02-17T03:42:26;45.90;;;27.10;;
32491;SDS011;20605;49.742;18.802;2023-02-17T03:44:52;48.60;;;29.10;;
32491;SDS011;20605;49.742;18.802;2023-02-17T03:47:18;45.80;;;28.80;;
32491;SDS011;20605;49.742;18.802;2023-02-17T03:49:44;47.50;;;28.60;;
32491;SDS011;20605;49.742;18.802;2023-02-17T03:52:09;48.20;;;28.70;;
32491;SDS011;20605;49.742;18.802;2023-02-17T03:54:36;48.50;;;28.80;;
32491;SDS011;20605;49.742;18.802;2023-02-17T03:57:02;44.90;;;28.00;;
32491;SDS011;20605;49.742;18.802;2023-02-17T03:59:28;43.90;;;27.60;;
32491;SDS011;20605;49.742;18.802;2023-02-17T04:01:54;44.20;;;26.80;;
32491;SDS011;20605;49.742;18.802;2023-02-17T04:04:20;50.30;;;28.10;;
32491;SDS011;20605;49.742;18.802;2023-02-17T04:06:46;45.50;;;26.30;;
32491;SDS011;20605;49.742;18.802;2023-02-17T04:09:12;38.70;;;26.30;;
32491;SDS011;20605;49.742;18.802;2023-02-17T04:11:37;42.30;;;24.80;;
32491;SDS011;20605;49.742;18.802;2023-02-17T04:14:03;44.20;;;26.30;;
32491;SDS011;20605;49.742;18.802;2023-02-17T04:16:29;41.30;;;25.60;;
32491;SDS011;20605;49.742;18.802;2023-02-17T04:18:55;40.60;;;25.10;;
32491;SDS011;20605;49.742;18.802;2023-02-17T04:21:20;39.70;;;25.80;;
32491;SDS011;20605;49.742;18.802;2023-02-17T04:23:46;42.90;;;27.20;;
32491;SDS011;20605;49.742;18.802;2023-02-17T04:26:12;42.50;;;26.60;;
32491;SDS011;20605;49.742;18.802;2023-02-17T04:28:38;47.30;;;26.10;;
32491;SDS011;20605;49.742;18.802;2023-02-17T04:31:06;40.30;;;25.40;;
32491;SDS011;20605;49.742;18.802;2023-02-17T04:33:32;41.10;;;24.60;;
32491;SDS011;20605;49.742;18.802;2023-02-17T04:35:59;37.70;;;23.40;;
32491;SDS011;20605;49.742;18.802;2023-02-17T04:38:26;43.20;;;25.40;;
32491;SDS011;20605;49.742;18.802;2023-02-17T04:40:53;41.70;;;25.50;;
32491;SDS011;20605;49.742;18.802;2023-02-17T04:43:21;39.10;;;23.80;;
32491;SDS011;20605;49.742;18.802;2023-02-17T04:45:47;36.40;;;23.60;;
32491;SDS011;20605;49.742;18.802;2023-02-17T04:48:13;38.60;;;24.50;;
32491;SDS011;20605;49.742;18.802;2023-02-17T04:50:39;38.40;;;23.90;;
32491;SDS011;20605;49.742;18.802;2023-02-17T04:53:05;39.90;;;25.00;;
32491;SDS011;20605;49.742;18.802;2023-02-17T04:55:31;39.80;;;24.50;;
32491;SDS011;20605;49.742;18.802;2023-02-17T04:57:57;41.30;;;25.80;;
32491;SDS011;20605;49.742;18.802;2023-02-17T05:00:24;42.60;;;26.20;;
32491;SDS011;20605;49.742;18.802;2023-02-17T05:02:50;42.40;;;26.50;;
32491;SDS011;20605;49.742;18.802;2023-02-17T05:05:16;44.10;;;27.00;;
32491;SDS011;20605;49.742;18.802;2023-02-17T05:07:46;64.80;;;37.80;;
32491;SDS011;20605;49.742;18.802;2023-02-17T05:10:13;54.80;;;35.30;;
32491;SDS011;20605;49.742;18.802;2023-02-17T05:12:41;63.80;;;37.60;;
32491;SDS011;20605;49.742;18.802;2023-02-17T05:15:07;52.60;;;30.10;;
32491;SDS011;20605;49.742;18.802;2023-02-17T05:17:34;48.60;;;30.40;;
32491;SDS011;20605;49.742;18.802;2023-02-17T05:20:00;45.80;;;29.70;;
32491;SDS011;20605;49.742;18.802;2023-02-17T05:22:26;59.00;;;33.50;;
32491;SDS011;20605;49.742;18.802;2023-02-17T05:24:52;53.60;;;30.60;;
32491;SDS011;20605;49.742;18.802;2023-02-17T05:27:18;51.90;;;29.90;;
32491;SDS011;20605;49.742;18.802;2023-02-17T05:29:44;44.30;;;26.50;;
32491;SDS011;20605;49.742;18.802;2023-02-17T05:32:11;49.50;;;27.40;;
32491;SDS011;20605;49.742;18.802;2023-02-17T05:34:36;45.00;;;26.90;;
32491;SDS011;20605;49.742;18.802;2023-02-17T05:37:03;47.30;;;28.20;;
32491;SDS011;20605;49.742;18.802;2023-02-17T05:39:29;38.10;;;24.00;;
32491;SDS011;20605;49.742;18.802;2023-02-17T05:41:55;42.90;;;26.80;;
32491;SDS011;20605;49.742;18.802;2023-02-17T05:44:20;42.70;;;23.80;;
32491;SDS011;20605;49.742;18.802;2023-02-17T05:46:46;36.60;;;23.30;;
32491;SDS011;20605;49.742;18.802;2023-02-17T05:49:12;40.50;;;25.20;;
32491;SDS011;20605;49.742;18.802;2023-02-17T05:51:38;39.00;;;24.20;;
32491;SDS011;20605;49.742;18.802;2023-02-17T05:54:04;46.00;;;26.50;;
32491;SDS011;20605;49.742;18.802;2023-02-17T05:56:30;45.90;;;28.70;;
32491;SDS011;20605;49.742;18.802;2023-02-17T05:58:56;47.50;;;29.60;;
32491;SDS011;20605;49.742;18.802;2023-02-17T06:01:22;45.90;;;27.30;;
32491;SDS011;20605;49.742;18.802;2023-02-17T06:03:48;35.50;;;24.00;;
32491;SDS011;20605;49.742;18.802;2023-02-17T06:06:15;45.70;;;25.10;;
32491;SDS011;20605;49.742;18.802;2023-02-17T06:08:41;42.90;;;27.00;;
32491;SDS011;20605;49.742;18.802;2023-02-17T06:11:06;42.20;;;25.10;;
32491;SDS011;20605;49.742;18.802;2023-02-17T06:13:32;39.60;;;24.80;;
32491;SDS011;20605;49.742;18.802;2023-02-17T06:15:58;38.00;;;23.00;;
32491;SDS011;20605;49.742;18.802;2023-02-17T06:18:25;33.60;;;20.90;;
32491;SDS011;20605;49.742;18.802;2023-02-17T06:20:53;34.70;;;21.50;;
32491;SDS011;20605;49.742;18.802;2023-02-17T06:23:22;33.60;;;21.20;;
32491;SDS011;20605;49.742;18.802;2023-02-17T06:25:48;35.00;;;21.00;;
32491;SDS011;20605;49.742;18.802;2023-02-17T06:28:13;33.80;;;20.70;;
32491;SDS011;20605;49.742;18.802;2023-02-17T06:30:39;34.10;;;22.50;;
32491;SDS011;20605;49.742;18.802;2023-02-17T06:33:05;34.30;;;21.40;;
32491;SDS011;20605;49.742;18.802;2023-02-17T06:35:31;35.10;;;21.90;;
32491;SDS011;20605;49.742;18.802;2023-02-17T06:37:57;34.30;;;22.60;;
32491;SDS011;20605;49.742;18.802;2023-02-17T06:40:23;38.50;;;24.10;;
32491;SDS011;20605;49.742;18.802;2023-02-17T06:42:49;43.10;;;25.50;;
32491;SDS011;20605;49.742;18.802;2023-02-17T06:45:14;44.30;;;25.40;;
32491;SDS011;20605;49.742;18.802;2023-02-17T06:47:40;37.50;;;24.20;;
32491;SDS011;20605;49.742;18.802;2023-02-17T06:50:07;36.30;;;22.70;;
32491;SDS011;20605;49.742;18.802;2023-02-17T06:52:34;38.40;;;22.60;;
32491;SDS011;20605;49.742;18.802;2023-02-17T06:55:00;33.30;;;21.20;;
32491;SDS011;20605;49.742;18.802;2023-02-17T06:57:26;30.80;;;20.90;;
32491;SDS011;20605;49.742;18.802;2023-02-17T06:59:51;34.70;;;22.70;;
32491;SDS011;20605;49.742;18.802;2023-02-17T07:02:17;37.70;;;24.10;;
32491;SDS011;20605;49.742;18.802;2023-02-17T07:04:43;37.20;;;22.70;;
32491;SDS011;20605;49.742;18.802;2023-02-17T07:07:09;37.00;;;22.50;;
32491;SDS011;20605;49.742;18.802;2023-02-17T07:09:35;32.20;;;21.50;;
32491;SDS011;20605;49.742;18.802;2023-02-17T07:12:02;38.30;;;24.10;;
32491;SDS011;20605;49.742;18.802;2023-02-17T07:14:31;36.30;;;24.00;;
32491;SDS011;20605;49.742;18.802;2023-02-17T07:16:58;34.60;;;22.90;;
32491;SDS011;20605;49.742;18.802;2023-02-17T07:19:24;37.00;;;24.70;;
32491;SDS011;20605;49.742;18.802;2023-02-17T07:21:49;33.60;;;21.80;;
32491;SDS011;20605;49.742;18.802;2023-02-17T07:24:15;32.70;;;21.20;;
32491;SDS011;20605;49.742;18.802;2023-02-17T07:26:43;33.40;;;22.00;;
32491;SDS011;20605;49.742;18.802;2023-02-17T07:29:19;32.80;;;21.80;;
32491;SDS011;20605;49.742;18.802;2023-02-17T07:31:46;33.70;;;21.10;;
32491;SDS011;20605;49.742;18.802;2023-02-17T07:34:11;33.40;;;22.10;;
32491;SDS011;20605;49.742;18.802;2023-02-17T07:36:37;33.80;;;23.50;;
32491;SDS011;20605;49.742;18.802;2023-02-17T07:39:03;34.30;;;22.40;;
32491;SDS011;20605;49.742;18.802;2023-02-17T07:41:29;32.60;;;23.10;;
32491;SDS011;20605;49.742;18.802;2023-02-17T07:43:59;29.40;;;21.80;;
32491;SDS011;20605;49.742;18.802;2023-02-17T23:21:30;3.30;;;3.00;;
32491;SDS011;20605;49.742;18.802;2023-02-17T23:23:56;3.70;;;3.20;;
32491;SDS011;20605;49.742;18.802;2023-02-17T23:26:22;2.80;;;2.60;;
32491;SDS011;20605;49.742;18.802;2023-02-17T23:28:48;3.80;;;2.60;;
32491;SDS011;20605;49.742;18.802;2023-02-17T23:31:13;2.90;;;2.70;;
32491;SDS011;20605;49.742;18.802;2023-02-17T23:33:39;2.80;;;2.50;;
32491;SDS011;20605;49.742;18.802;2023-02-17T23:36:05;3.70;;;3.00;;
32491;SDS011;20605;49.742;18.802;2023-02-17T23:38:32;4.90;;;3.00;;
32491;SDS011;20605;49.742;18.802;2023-02-17T23:40:58;3.10;;;2.80;;
32491;SDS011;20605;49.742;18.802;2023-02-17T23:43:26;3.40;;;3.10;;
32491;SDS011;20605;49.742;18.802;2023-02-17T23:45:57;3.50;;;3.20;;
32491;SDS011;20605;49.742;18.802;2023-02-17T23:48:24;5.30;;;3.50;;
32491;SDS011;20605;49.742;18.802;2023-02-17T23:50:57;3.80;;;3.40;;
32491;SDS011;20605;49.742;18.802;2023-02-17T23:53:25;3.50;;;2.80;;
32491;SDS011;20605;49.742;18.802;2023-02-17T23:56:07;3.40;;;2.80;;
32491;SDS011;20605;49.742;18.802;2023-02-17T23:58:37;3.40;;;3.10;;
